createdAt,value
2018-03-25T00:05:33.413Z,5.63
2018-03-25T00:11:24.271Z,3.89
2018-03-25T00:17:15.133Z,5.13
2018-03-25T00:23:05.995Z,5.18
2018-03-25T00:28:56.834Z,7.47
2018-03-25T00:34:47.688Z,4.05
2018-03-25T00:40:38.569Z,4.11
2018-03-25T00:46:29.369Z,4.56
2018-03-25T00:52:20.243Z,7.42
2018-03-25T00:58:11.094Z,5.36
2018-03-25T01:04:01.952Z,4.85
2018-03-25T01:09:52.931Z,4.5
2018-03-25T01:15:43.638Z,6.2
2018-03-25T01:21:34.496Z,4.94
2018-03-25T01:27:25.387Z,5.62
2018-03-25T01:33:16.274Z,5.5
2018-03-25T01:39:07.073Z,5.64
2018-03-25T01:44:58.012Z,5.44
2018-03-25T01:50:48.775Z,6.64
2018-03-25T01:56:39.688Z,6.22
2018-03-25T02:02:30.523Z,5.32
2018-03-25T02:08:21.350Z,5.11
2018-03-25T02:14:12.199Z,5.57
2018-03-25T02:20:03.086Z,6.57
2018-03-25T02:25:53.898Z,4.87
2018-03-25T02:31:44.832Z,5.42
2018-03-25T02:37:35.658Z,5.39
2018-03-25T02:43:26.490Z,4.98
2018-03-25T02:49:17.324Z,6.62
2018-03-25T02:55:08.141Z,4.35
2018-03-25T03:00:59.084Z,5.68
2018-03-25T03:06:49.844Z,5.64
2018-03-25T03:12:40.748Z,4.83
2018-03-25T03:18:31.571Z,5.95
2018-03-25T03:24:22.413Z,4.75
2018-03-25T03:30:13.251Z,6.32
2018-03-25T03:36:04.083Z,6.32
2018-03-25T03:41:54.974Z,5.04
2018-03-25T03:47:45.780Z,6.29
2018-03-25T03:53:36.724Z,5.29
2018-03-25T03:59:27.492Z,5.46
2018-03-25T04:05:18.404Z,5.14
2018-03-25T04:11:09.237Z,4.92
2018-03-25T04:17:00.047Z,5.72
2018-03-25T04:22:50.892Z,4.28
2018-03-25T04:28:41.742Z,5.43
2018-03-25T04:34:32.590Z,5.79
2018-03-25T04:40:23.408Z,4.56
2018-03-25T04:46:14.312Z,5.95
2018-03-25T04:52:05.116Z,6.45
2018-03-25T04:57:55.945Z,5.77
2018-03-25T05:03:46.801Z,6.2
2018-03-25T05:09:37.760Z,7.3
2018-03-25T05:15:28.542Z,7.5
2018-03-25T05:21:19.384Z,6.01
2018-03-25T05:27:10.212Z,10.34
2018-03-25T05:33:01.086Z,6.18
2018-03-25T05:38:51.957Z,6.61
2018-03-25T05:44:42.801Z,7.17
2018-03-25T05:50:33.684Z,7.21
2018-03-25T05:56:24.449Z,9.11
2018-03-25T06:02:15.339Z,7.11
2018-03-25T06:08:06.166Z,8.01
2018-03-25T06:13:57.010Z,8.01
2018-03-25T06:19:47.837Z,9.04
2018-03-25T06:25:38.700Z,7
2018-03-25T06:31:29.606Z,8.46
2018-03-25T06:37:20.393Z,6.64
2018-03-25T06:43:11.270Z,7.69
2018-03-25T06:49:02.121Z,6.8
2018-03-25T06:54:52.940Z,7.62
2018-03-25T07:00:43.830Z,6.82
2018-03-25T07:06:34.662Z,6.2
2018-03-25T07:12:25.506Z,6.26
2018-03-25T07:18:16.367Z,10.13
2018-03-25T07:24:07.219Z,6.74
2018-03-25T07:29:58.070Z,7.57
2018-03-25T07:35:48.897Z,7.54
2018-03-25T07:41:39.789Z,7.24
2018-03-25T07:47:30.650Z,9.76
2018-03-25T07:53:21.468Z,9.42
2018-03-25T07:59:12.345Z,6.97
2018-03-25T08:05:03.176Z,8.08
2018-03-25T08:10:54.069Z,8.44
2018-03-25T08:16:44.843Z,6.35
2018-03-25T08:22:35.718Z,9.19
2018-03-25T08:28:26.561Z,5.89
2018-03-25T08:34:17.392Z,6.8
2018-03-25T08:40:08.264Z,6.49
2018-03-25T08:45:59.134Z,6.72
2018-03-25T08:51:49.950Z,8.35
2018-03-25T08:57:40.819Z,5.96
2018-03-25T09:03:31.688Z,7.29
2018-03-25T09:09:22.532Z,6.51
2018-03-25T09:15:13.373Z,6
2018-03-25T09:21:04.228Z,5.3
2018-03-25T09:26:55.117Z,5.92
2018-03-25T09:32:46.002Z,9.23
2018-03-25T09:38:36.790Z,5.79
2018-03-25T09:44:27.654Z,7.92
2018-03-25T09:50:18.529Z,5.31
2018-03-25T09:56:09.374Z,4.82
2018-03-25T10:02:00.212Z,9.05
2018-03-25T10:07:51.098Z,7.95
2018-03-25T10:13:41.949Z,6.72
2018-03-25T10:19:32.828Z,6.05
2018-03-25T10:25:23.669Z,5.82
2018-03-25T10:31:14.525Z,7.14
2018-03-25T10:37:05.397Z,6.57
2018-03-25T10:42:56.304Z,6.52
2018-03-25T10:48:47.111Z,6.41
2018-03-25T10:54:37.974Z,5.56
2018-03-25T11:00:28.874Z,9.07
2018-03-25T11:06:19.722Z,6.4
2018-03-25T11:12:10.577Z,5.77
2018-03-25T11:18:01.507Z,7.84
2018-03-25T11:23:52.287Z,9.51
2018-03-25T11:29:43.209Z,6.76
2018-03-25T11:35:34.031Z,6.41
2018-03-25T11:41:24.920Z,6.94
2018-03-25T11:47:15.880Z,5.67
2018-03-25T11:53:06.755Z,6.94
2018-03-25T11:58:57.588Z,5.99
2018-03-25T12:04:48.438Z,5.74
2018-03-25T12:10:39.364Z,5.53
2018-03-25T12:16:30.204Z,7.14
2018-03-25T12:22:21.109Z,6.51
2018-03-25T12:28:11.981Z,5.55
2018-03-25T12:34:02.908Z,6
2018-03-25T12:39:53.773Z,6.1
2018-03-25T12:45:44.682Z,5.76
2018-03-25T12:51:35.591Z,6.4
2018-03-25T12:57:26.428Z,7.12
2018-03-25T13:03:17.328Z,6.44
2018-03-25T13:09:08.260Z,6.77
2018-03-25T13:14:59.121Z,7.27
2018-03-25T13:20:50.078Z,7.03
2018-03-25T13:26:40.945Z,7.78
2018-03-25T13:32:31.823Z,6.22
2018-03-25T13:38:22.739Z,6.35
2018-03-25T13:44:13.623Z,7.13
2018-03-25T13:50:04.526Z,8.36
2018-03-25T13:55:55.430Z,7.44
2018-03-25T14:01:46.337Z,8.51
2018-03-25T14:07:37.229Z,8.64
2018-03-25T14:13:28.131Z,9.02
2018-03-25T14:19:19.011Z,8.76
2018-03-25T14:25:09.950Z,8.29
2018-03-25T14:31:00.821Z,8.88
2018-03-25T14:36:51.730Z,9.63
2018-03-25T14:42:42.599Z,9.72
2018-03-25T14:48:33.513Z,10.31
2018-03-25T14:54:24.368Z,10.85
2018-03-25T15:00:15.302Z,12.47
2018-03-25T15:06:06.162Z,10.49
2018-03-25T15:11:57.080Z,10.6
2018-03-25T15:17:47.954Z,13.48
2018-03-25T15:23:38.855Z,11.42
2018-03-25T15:29:29.684Z,12.28
2018-03-25T15:35:20.592Z,12.46
2018-03-25T15:41:11.463Z,10.32
2018-03-25T15:47:02.415Z,11.21
2018-03-25T15:52:53.249Z,10.72
2018-03-25T15:58:44.106Z,11.18
2018-03-25T16:04:34.970Z,11.8
2018-03-25T16:10:25.856Z,15.7
2018-03-25T16:16:16.825Z,11.99
2018-03-25T16:22:07.622Z,14.52
2018-03-25T16:27:58.479Z,14.66
2018-03-25T16:33:49.387Z,12.63
2018-03-25T16:39:40.263Z,11.76
2018-03-25T16:45:31.086Z,12.81
2018-03-25T16:51:21.970Z,12.89
2018-03-25T16:57:12.851Z,10.45
2018-03-25T17:03:03.759Z,13.89
2018-03-25T17:08:54.589Z,14.06
2018-03-25T17:14:45.448Z,14.91
2018-03-25T17:20:36.383Z,11.37
2018-03-25T17:26:27.240Z,15.52
2018-03-25T17:32:18.068Z,13.36
2018-03-25T17:38:08.968Z,10.61
2018-03-25T17:43:59.824Z,11.89
2018-03-25T17:49:50.740Z,11.28
2018-03-25T17:55:41.649Z,13.4
2018-03-25T18:01:32.414Z,13.87
2018-03-25T18:07:23.306Z,10.38
2018-03-25T18:13:14.177Z,14.52
2018-03-25T18:19:05.086Z,14.64
2018-03-25T18:24:55.918Z,14.27
2018-03-25T18:30:46.761Z,15.06
2018-03-25T18:36:37.652Z,14.13
2018-03-25T18:42:28.560Z,13.04
2018-03-25T18:48:19.401Z,18.18
2018-03-25T18:54:10.269Z,11.59
2018-03-25T19:00:01.139Z,13.51
2018-03-25T19:05:51.966Z,12.64
2018-03-25T19:11:42.830Z,15.06
2018-03-25T19:17:33.685Z,12.69
2018-03-25T19:23:24.581Z,17.39
2018-03-25T19:29:15.444Z,16.67
2018-03-25T19:35:06.300Z,12.77
2018-03-25T19:40:57.146Z,17.37
2018-03-25T19:46:47.974Z,16.96
2018-03-25T19:52:38.958Z,21.82
2018-03-25T19:58:29.751Z,17.3
2018-03-25T20:04:20.568Z,16.75
2018-03-25T20:10:11.515Z,15.41
2018-03-25T20:16:02.285Z,15.09
2018-03-25T20:21:53.168Z,14.64
2018-03-25T20:27:44.051Z,14.94
2018-03-25T20:33:34.891Z,16.55
2018-03-25T20:39:25.736Z,18.08
2018-03-25T20:45:16.619Z,14.18
2018-03-25T20:51:08.270Z,16.34
2018-03-25T20:56:58.340Z,17.98
2018-03-25T21:02:49.258Z,17.5
2018-03-25T21:08:40.059Z,16.21
2018-03-25T21:14:30.925Z,16.96
2018-03-25T21:20:21.769Z,14.26
2018-03-25T21:26:12.634Z,14.24
2018-03-25T21:32:03.487Z,12.37
2018-03-25T21:37:54.349Z,13.42
2018-03-25T21:43:45.191Z,15.42
2018-03-25T21:49:36.053Z,17.47
2018-03-25T21:55:26.934Z,13.47
2018-03-25T22:01:17.759Z,16.1
2018-03-25T22:07:08.612Z,13.46
2018-03-25T22:12:59.529Z,14.25
2018-03-25T22:18:50.452Z,15.66
2018-03-25T22:24:41.223Z,15.93
2018-03-25T22:30:32.131Z,17.27
2018-03-25T22:36:22.943Z,13.72
2018-03-25T22:42:13.768Z,11.99
2018-03-25T22:48:04.643Z,16.66
2018-03-25T22:53:55.494Z,14.49
2018-03-25T22:59:46.316Z,16.31
2018-03-25T23:05:37.183Z,12.86
2018-03-25T23:11:28.097Z,15.06
2018-03-25T23:17:18.916Z,16.52
2018-03-25T23:23:09.771Z,14.03
2018-03-25T23:29:00.588Z,15.23
2018-03-25T23:34:51.500Z,15.91
2018-03-25T23:40:42.396Z,17.51
2018-03-25T23:46:33.164Z,15.6
2018-03-25T23:52:24.059Z,15.56
2018-03-25T23:58:14.912Z,15.92
